createdAt,value
2017-11-12T00:02:24.607Z,95188.12
2017-11-12T00:04:52.310Z,95187.89
2017-11-12T00:07:19.951Z,95180.89
2017-11-12T00:09:47.595Z,95183.64
2017-11-12T00:12:15.172Z,95186.11
2017-11-12T00:14:42.808Z,95185.16
2017-11-12T00:17:10.436Z,95179.39
2017-11-12T00:19:38.467Z,95180.59
2017-11-12T00:22:06.756Z,95136.45
2017-11-12T00:24:34.434Z,95176.42
2017-11-12T00:27:03.580Z,95179.78
2017-11-12T00:29:31.208Z,95178.33
2017-11-12T00:31:58.891Z,95182.06
2017-11-12T00:34:26.576Z,95177.72
2017-11-12T00:36:54.263Z,95173.48
2017-11-12T00:39:21.971Z,95167.09
2017-11-12T00:41:50.210Z,95169.33
2017-11-12T00:44:18.023Z,95169.75
2017-11-12T00:46:45.793Z,95166.09
2017-11-12T00:49:13.600Z,95160.39
2017-11-12T00:51:41.242Z,95166.70
2017-11-12T00:54:08.946Z,95162.16
2017-11-12T00:56:37.149Z,95167.30
2017-11-12T00:59:05.771Z,95172.73
2017-11-12T01:01:34.170Z,95160.82
2017-11-12T01:04:02.571Z,95152.67
2017-11-12T01:06:31.139Z,95151.48
2017-11-12T01:08:58.884Z,95155.14
2017-11-12T01:11:26.775Z,95147.91
2017-11-12T01:20:56.532Z,95134.20
2017-11-12T01:23:24.081Z,95136.69
2017-11-12T01:25:51.878Z,95140.02
2017-11-12T01:28:19.513Z,95127.59
2017-11-12T01:30:47.104Z,95133.16
2017-11-12T01:33:14.797Z,95137.64
2017-11-12T01:35:42.627Z,95136.19
2017-11-12T01:38:10.288Z,95136.37
2017-11-12T01:40:37.840Z,95126.02
2017-11-12T01:43:06.290Z,95135.19
2017-11-12T01:45:33.940Z,95117.84
2017-11-12T01:48:01.509Z,95121.16
2017-11-12T01:50:29.100Z,95117.03
2017-11-12T01:52:56.730Z,95105.56
2017-11-12T01:55:24.373Z,95108.19
2017-11-12T01:57:52.074Z,95107.16
2017-11-12T02:00:19.756Z,95103.27
2017-11-12T02:02:47.340Z,95103.33
2017-11-12T02:05:14.972Z,95107.80
2017-11-12T02:07:42.788Z,95101.44
2017-11-12T02:10:10.418Z,95111.34
2017-11-12T02:12:38.013Z,95102.75
2017-11-12T02:15:06.164Z,95097.15
2017-11-12T02:17:33.724Z,95092.06
2017-11-12T02:20:01.561Z,95098.14
2017-11-12T02:22:29.218Z,95103.23
2017-11-12T02:24:57.021Z,95112.98
2017-11-12T02:27:25.662Z,95119.36
2017-11-12T02:29:53.367Z,95116.89
2017-11-12T02:32:21.185Z,95125.30
2017-11-12T02:34:49.018Z,95111.16
2017-11-12T02:37:16.850Z,95126.17
2017-11-12T02:39:44.506Z,95130.67
2017-11-12T02:42:12.583Z,95133.23
2017-11-12T02:44:40.391Z,95133.42
2017-11-12T02:47:08.122Z,95130.11
2017-11-12T02:49:35.743Z,95130.70
2017-11-12T02:52:03.325Z,95135.39
2017-11-12T02:54:30.941Z,95135.02
2017-11-12T02:56:58.736Z,95142.75
2017-11-12T02:59:26.379Z,95147.16
2017-11-12T03:01:54.121Z,95139.37
2017-11-12T03:04:21.736Z,95138.64
2017-11-12T03:06:49.367Z,95138.50
2017-11-12T03:09:17.950Z,95137.40
2017-11-12T03:11:45.556Z,95135.64
2017-11-12T03:14:13.141Z,95137.84
2017-11-12T03:16:40.996Z,95142.70
2017-11-12T03:19:08.608Z,95146.52
2017-11-12T03:21:36.280Z,95143.09
2017-11-12T03:24:04.004Z,95135.41
2017-11-12T03:26:31.637Z,95133.95
2017-11-12T03:28:59.266Z,95133.84
2017-11-12T03:31:27.205Z,95139.19
2017-11-12T03:33:54.825Z,95140.70
2017-11-12T03:36:22.509Z,95136.17
2017-11-12T03:38:53.874Z,95140.20
2017-11-12T03:41:21.471Z,95147.12
2017-11-12T03:43:49.864Z,95141.22
2017-11-12T03:46:17.780Z,95140.50
2017-11-12T03:48:45.477Z,95140.70
2017-11-12T03:51:13.283Z,95139.03
2017-11-12T03:53:41.749Z,95128.82
2017-11-12T03:56:09.344Z,95118.75
2017-11-12T03:58:37.606Z,95120.83
2017-11-12T04:01:05.232Z,95129.50
2017-11-12T04:03:32.854Z,95121.86
2017-11-12T04:06:00.637Z,95127.86
2017-11-12T04:08:28.254Z,95121.84
2017-11-12T04:10:56.062Z,95121.16
2017-11-12T04:13:23.845Z,95133.82
2017-11-12T04:15:51.523Z,95132.30
2017-11-12T04:18:19.165Z,95139.25
2017-11-12T04:20:46.788Z,95134.69
2017-11-12T04:23:14.383Z,95142.30
2017-11-12T04:25:42.288Z,95133.25
2017-11-12T04:28:09.876Z,95119.42
2017-11-12T04:30:38.215Z,95129.20
2017-11-12T04:33:06.006Z,95106.80
2017-11-12T04:35:33.585Z,95099.86
2017-11-12T04:38:01.218Z,95103.48
2017-11-12T04:40:28.979Z,95109.81
2017-11-12T04:42:56.568Z,95111.06
2017-11-12T04:45:24.266Z,95115.90
2017-11-12T04:47:51.823Z,95121.91
2017-11-12T04:50:19.450Z,95122.92
2017-11-12T04:52:47.224Z,95119.86
2017-11-12T04:55:15.044Z,95126.89
2017-11-12T04:57:42.684Z,95126.78
2017-11-12T05:00:10.593Z,95122.91
2017-11-12T05:02:38.444Z,95126.62
2017-11-12T05:05:06.073Z,95126.20
2017-11-12T05:07:33.697Z,95149.55
2017-11-12T05:10:01.584Z,95151.61
2017-11-12T05:12:29.177Z,95153.83
2017-11-12T05:14:56.867Z,95150.10
2017-11-12T05:17:24.479Z,95152.09
2017-11-12T05:19:52.022Z,95145.80
2017-11-12T05:22:19.651Z,95144.10
2017-11-12T05:24:47.211Z,95153.91
2017-11-12T05:27:14.779Z,95144.95
2017-11-12T05:29:42.409Z,95152.72
2017-11-12T05:32:10.442Z,95164.25
2017-11-12T05:34:38.040Z,95160.17
2017-11-12T05:37:05.700Z,95170.30
2017-11-12T05:39:33.352Z,95169.23
2017-11-12T05:42:01.832Z,95174.23
2017-11-12T05:44:29.532Z,95158.20
2017-11-12T05:46:57.344Z,95159.54
2017-11-12T05:49:24.879Z,95161.92
2017-11-12T05:51:53.240Z,95172.27
2017-11-12T05:54:27.920Z,95167.86
2017-11-12T06:03:47.687Z,95162.69
2017-11-12T06:06:17.613Z,95167.22
2017-11-12T06:26:43.090Z,95177.24
2017-11-12T06:29:18.192Z,95179.38
2017-11-12T06:31:46.049Z,95170.91
2017-11-12T06:34:13.626Z,95171.44
2017-11-12T06:36:44.520Z,95176.55
2017-11-12T06:39:12.681Z,95181.63
2017-11-12T06:41:40.915Z,95168.84
2017-11-12T06:44:31.119Z,95173.94
2017-11-12T06:47:20.136Z,95188.86
2017-11-12T06:49:57.006Z,95181.43
2017-11-12T06:52:42.144Z,95186.77
2017-11-12T07:02:01.282Z,95188.91
2017-11-12T07:04:29.639Z,95183.14
2017-11-12T07:06:58.388Z,95190.70
2017-11-12T07:09:27.664Z,95187.78
2017-11-12T07:11:55.607Z,95195.19
2017-11-12T07:14:24.197Z,95198.23
2017-11-12T07:17:04.787Z,95197.17
2017-11-12T07:19:32.482Z,95193.72
2017-11-12T07:22:03.688Z,95190.50
2017-11-12T07:24:37.950Z,95191.87
2017-11-12T07:27:06.082Z,95190.94
2017-11-12T07:29:37.894Z,95175.73
2017-11-12T07:32:05.694Z,95175.53
2017-11-12T07:34:33.885Z,95162.13
2017-11-12T07:37:01.620Z,95164.17
2017-11-12T07:39:31.732Z,95167.03
2017-11-12T07:42:05.393Z,95158.57
2017-11-12T07:44:33.045Z,95158.87
2017-11-12T07:47:02.815Z,95171.97
2017-11-12T07:49:31.045Z,95162.83
2017-11-12T07:52:38.887Z,95170.00
2017-11-12T07:55:06.611Z,95166.36
2017-11-12T07:57:34.338Z,95163.88
2017-11-12T08:00:02.720Z,95165.30
2017-11-12T08:02:30.336Z,95165.59
2017-11-12T08:04:57.888Z,95164.25
2017-11-12T08:07:42.449Z,95155.38
2017-11-12T08:10:21.112Z,95150.71
2017-11-12T08:12:49.921Z,95141.17
2017-11-12T08:15:17.605Z,95152.50
2017-11-12T08:17:45.611Z,95155.50
2017-11-12T08:20:13.271Z,95158.08
2017-11-12T08:22:40.887Z,95150.01
2017-11-12T08:25:08.473Z,95150.39
2017-11-12T08:27:36.113Z,95147.52
2017-11-12T08:30:07.493Z,95152.77
2017-11-12T08:32:35.092Z,95149.55
2017-11-12T08:35:03.432Z,95142.72
2017-11-12T08:37:31.050Z,95138.50
2017-11-12T08:39:58.678Z,95141.45
2017-11-12T08:42:26.220Z,95140.68
2017-11-12T08:44:53.857Z,95142.25
2017-11-12T08:47:21.559Z,95145.39
2017-11-12T08:49:49.156Z,95138.02
2017-11-12T08:52:16.920Z,95134.32
2017-11-12T08:54:44.625Z,95132.16
2017-11-12T08:57:12.262Z,95136.16
2017-11-12T08:59:40.843Z,95132.19
2017-11-12T09:02:08.524Z,95126.74
2017-11-12T09:04:36.142Z,95127.56
2017-11-12T09:07:03.784Z,95121.75
2017-11-12T09:09:37.016Z,95123.30
2017-11-12T09:12:05.425Z,95116.23
2017-11-12T09:14:35.061Z,95117.27
2017-11-12T09:17:03.733Z,95102.09
2017-11-12T09:19:32.017Z,95099.97
2017-11-12T09:22:02.837Z,95103.34
2017-11-12T09:24:30.431Z,95105.05
2017-11-12T09:27:00.553Z,95102.46
2017-11-12T09:29:30.959Z,95100.25
2017-11-12T09:31:59.825Z,95102.58
2017-11-12T09:34:29.047Z,95104.58
2017-11-12T09:37:00.211Z,95097.17
2017-11-12T09:39:31.201Z,95089.23
2017-11-12T09:42:00.828Z,95093.58
2017-11-12T09:44:30.326Z,95090.40
2017-11-12T09:46:58.140Z,95088.38
2017-11-12T09:49:27.814Z,95091.04
2017-11-12T09:51:56.184Z,95088.61
2017-11-12T09:54:27.201Z,95081.98
2017-11-12T09:56:57.520Z,95070.89
2017-11-12T09:59:26.277Z,95077.66
2017-11-12T10:01:56.674Z,95067.48
2017-11-12T10:04:25.371Z,95069.75
2017-11-12T10:06:53.643Z,95059.00
2017-11-12T10:09:23.053Z,95051.88
2017-11-12T10:11:51.841Z,95033.14
2017-11-12T10:14:21.955Z,95047.97
2017-11-12T10:16:51.987Z,95040.09
2017-11-12T10:19:21.608Z,95031.77
2017-11-12T10:21:50.724Z,95027.66
2017-11-12T10:24:20.038Z,95028.62
2017-11-12T10:26:49.258Z,95021.22
2017-11-12T10:29:17.266Z,95016.94
2017-11-12T10:31:46.295Z,95009.27
2017-11-12T10:34:16.376Z,95004.23
2017-11-12T10:36:45.455Z,95002.63
2017-11-12T10:39:15.095Z,94998.95
2017-11-12T10:41:44.807Z,94999.77
2017-11-12T10:44:13.302Z,94995.55
2017-11-12T10:46:41.394Z,94996.19
2017-11-12T10:49:10.086Z,94984.86
2017-11-12T10:51:39.030Z,94986.67
2017-11-12T10:54:08.576Z,94981.16
2017-11-12T10:56:38.507Z,94977.80
2017-11-12T10:59:08.223Z,94957.44
2017-11-12T11:01:39.140Z,94966.66
2017-11-12T11:06:46.356Z,94953.75
2017-11-12T11:09:16.932Z,94955.61
2017-11-12T11:11:47.914Z,94952.41
2017-11-12T11:14:17.281Z,94943.89
2017-11-12T11:16:57.205Z,94949.37
2017-11-12T11:19:28.223Z,94945.50
2017-11-12T11:21:56.299Z,94937.11
2017-11-12T11:24:26.132Z,94935.95
2017-11-12T11:26:55.489Z,94936.63
2017-11-12T11:29:23.959Z,94930.78
2017-11-12T11:31:51.884Z,94933.34
2017-11-12T11:34:22.177Z,94926.08
2017-11-12T11:39:22.867Z,94920.66
2017-11-12T11:41:52.045Z,94914.03
2017-11-12T11:44:24.926Z,94911.47
2017-11-12T11:49:36.477Z,94900.38
2017-11-12T11:52:07.552Z,94897.28
2017-11-12T11:54:47.237Z,94897.47
2017-11-12T11:57:15.694Z,94887.73
2017-11-12T11:59:46.601Z,94900.02
2017-11-12T12:02:15.510Z,94892.81
2017-11-12T12:04:43.893Z,94884.02
2017-11-12T12:07:13.215Z,94885.97
2017-11-12T12:09:41.477Z,94882.83
2017-11-12T12:12:12.474Z,94876.58
2017-11-12T12:14:40.721Z,94881.28
2017-11-12T12:17:09.528Z,94883.03
2017-11-12T12:19:41.633Z,94878.35
2017-11-12T12:22:10.223Z,94879.69
2017-11-12T12:24:39.461Z,94875.89
2017-11-12T12:27:14.547Z,94876.00
2017-11-12T12:29:47.086Z,94873.86
2017-11-12T12:32:16.541Z,94875.83
2017-11-12T14:21:56.526Z,94816.92
2017-11-12T14:24:25.076Z,94821.02
2017-11-12T14:26:54.215Z,94817.31
2017-11-12T14:29:22.503Z,94816.14
2017-11-12T14:31:50.745Z,94816.93
2017-11-12T14:34:19.910Z,94823.73
2017-11-12T14:36:47.831Z,94833.20
2017-11-12T14:39:17.224Z,94821.69
2017-11-12T14:41:47.375Z,94820.14
2017-11-12T14:44:15.621Z,94813.93
2017-11-12T14:46:46.211Z,94826.59
2017-11-12T14:49:15.704Z,94825.21
2017-11-12T14:51:44.685Z,94839.23
2017-11-12T14:54:14.294Z,94825.23
2017-11-12T14:56:43.135Z,94830.45
2017-11-12T14:59:13.940Z,94827.16
2017-11-12T15:01:50.243Z,94825.78
2017-11-12T15:04:18.769Z,94820.31
2017-11-12T15:06:48.254Z,94815.45
2017-11-12T15:09:19.335Z,94818.75
2017-11-12T15:11:48.686Z,94818.88
2017-11-12T15:14:18.989Z,94821.40
2017-11-12T15:16:47.557Z,94831.36
2017-11-12T15:19:39.181Z,94825.75
2017-11-12T15:22:09.607Z,94824.52
2017-11-12T15:24:40.616Z,94818.49
2017-11-12T15:27:08.927Z,94822.12
2017-11-12T15:29:37.315Z,94806.23
2017-11-12T15:32:58.100Z,94805.59
2017-11-12T15:35:34.094Z,94805.84
2017-11-12T15:41:50.941Z,94812.47
2017-11-12T15:44:21.305Z,94801.13
2017-11-12T15:46:50.269Z,94804.23
2017-11-12T15:49:19.364Z,94805.39
2017-11-12T15:51:50.675Z,94804.03
2017-11-12T15:54:22.738Z,94808.05
2017-11-12T15:56:53.140Z,94798.98
2017-11-12T16:03:01.803Z,94797.27
2017-11-12T16:05:31.305Z,94796.61
2017-11-12T16:08:02.745Z,94797.48
2017-11-12T16:10:33.564Z,94807.05
2017-11-12T16:13:13.104Z,94811.43
2017-11-12T16:15:44.628Z,94809.34
2017-11-12T16:18:13.166Z,94804.05
2017-11-12T16:20:44.311Z,94795.62
2017-11-12T16:23:12.503Z,94804.81
2017-11-12T16:25:41.689Z,94814.12
2017-11-12T16:28:12.893Z,94810.09
2017-11-12T16:30:41.761Z,94811.53
2017-11-12T16:33:12.964Z,94806.52
2017-11-12T16:35:42.044Z,94801.14
2017-11-12T16:38:13.162Z,94812.14
2017-11-12T16:40:42.962Z,94804.91
2017-11-12T16:43:13.317Z,94806.02
2017-11-12T16:45:42.697Z,94807.45
2017-11-12T16:48:13.034Z,94812.02
2017-11-12T16:50:41.965Z,94808.90
2017-11-12T16:53:11.227Z,94807.37
2017-11-12T16:55:41.628Z,94804.03
2017-11-12T16:58:12.549Z,94800.69
2017-11-12T17:00:42.440Z,94803.33
2017-11-12T17:03:10.919Z,94787.74
2017-11-12T17:05:40.098Z,94793.84
2017-11-12T17:10:54.026Z,94790.72
2017-11-12T17:13:25.251Z,94783.52
2017-11-12T17:16:05.402Z,94785.23
2017-11-12T17:18:33.905Z,94787.17
2017-11-12T17:21:02.054Z,94775.89
2017-11-12T17:23:31.013Z,94779.35
2017-11-12T17:26:05.566Z,94766.98
2017-11-12T17:28:36.184Z,94772.77
2017-11-12T17:31:11.384Z,94778.13
2017-11-12T17:33:40.456Z,94781.28
2017-11-12T17:36:10.947Z,94777.07
2017-11-12T17:38:40.762Z,94770.72
2017-11-12T17:41:10.299Z,94771.16
2017-11-12T17:43:39.908Z,94762.71
2017-11-12T17:46:09.703Z,94761.71
2017-11-12T17:48:38.592Z,94753.58
2017-11-12T17:51:07.578Z,94749.49
2017-11-12T17:53:38.324Z,94762.23
2017-11-12T17:56:09.978Z,94765.36
2017-11-12T17:58:39.066Z,94767.41
2017-11-12T18:01:07.992Z,94761.35
2017-11-12T18:03:39.404Z,94765.36
2017-11-12T18:06:09.416Z,94767.19
2017-11-12T18:08:42.415Z,94773.70
2017-11-12T18:11:12.181Z,94764.39
2017-11-12T18:13:48.622Z,94762.64
2017-11-12T18:16:22.105Z,94774.25
2017-11-12T18:18:53.359Z,94778.22
2017-11-12T18:21:23.400Z,94768.04
2017-11-12T18:23:51.914Z,94765.97
2017-11-12T18:26:21.870Z,94769.27
2017-11-12T18:28:50.552Z,94760.53
2017-11-12T18:31:20.690Z,94758.66
2017-11-12T18:36:38.165Z,94753.68
2017-11-12T18:39:07.940Z,94747.32
2017-11-12T18:41:38.209Z,94727.45
2017-11-12T18:44:10.666Z,94733.55
2017-11-12T18:46:42.528Z,94728.72
2017-11-12T18:49:14.518Z,94743.17
2017-11-12T18:51:43.184Z,94730.02
2017-11-12T18:54:11.080Z,94746.97
2017-11-12T18:56:40.201Z,94743.90
2017-11-12T18:59:13.985Z,94736.27
2017-11-12T19:04:47.166Z,94719.37
2017-11-12T19:07:22.171Z,94719.61
2017-11-12T19:10:00.264Z,94718.45
2017-11-12T19:12:27.947Z,94724.32
2017-11-12T19:14:55.599Z,94734.27
2017-11-12T19:17:28.640Z,94727.70
2017-11-12T19:19:59.093Z,94727.81
2017-11-12T19:22:41.633Z,94720.27
2017-11-12T19:25:09.745Z,94722.06
2017-11-12T19:27:37.561Z,94732.11
2017-11-12T19:30:10.651Z,94732.98
2017-11-12T19:32:38.538Z,94730.89
2017-11-12T19:35:06.319Z,94720.58
2017-11-12T19:37:34.878Z,94733.14
2017-11-12T19:40:09.678Z,94725.61
2017-11-12T19:42:37.356Z,94727.31
2017-11-12T19:45:05.228Z,94723.95
2017-11-12T19:47:34.145Z,94715.24
2017-11-12T19:50:02.955Z,94711.40
2017-11-12T19:52:30.753Z,94727.48
2017-11-12T19:54:59.070Z,94713.53
2017-11-12T19:57:28.365Z,94709.75
2017-11-12T19:59:56.295Z,94723.34
2017-11-12T20:02:24.056Z,94726.14
2017-11-12T20:04:53.970Z,94726.69
2017-11-12T20:07:22.048Z,94725.67
2017-11-12T20:09:50.855Z,94727.84
2017-11-12T20:12:19.501Z,94754.05
2017-11-12T20:14:47.312Z,94725.83
2017-11-12T20:17:15.032Z,94723.23
2017-11-12T20:19:42.774Z,94719.80
2017-11-12T20:22:10.960Z,94714.67
2017-11-12T20:24:38.949Z,94716.48
2017-11-12T20:27:06.622Z,94692.97
2017-11-12T20:29:35.311Z,94721.30
2017-11-12T20:32:03.076Z,94716.17
2017-11-12T20:34:30.777Z,94715.30
2017-11-12T20:36:59.449Z,94710.36
2017-11-12T20:39:27.601Z,94720.88
2017-11-12T20:41:55.640Z,94714.19
2017-11-12T20:44:23.595Z,94709.07
2017-11-12T20:46:52.133Z,94711.05
2017-11-12T20:49:19.842Z,94727.94
2017-11-12T20:51:49.093Z,94704.52
2017-11-12T20:54:18.053Z,94713.23
2017-11-12T20:56:46.922Z,94708.19
2017-11-12T20:59:15.648Z,94699.59
2017-11-12T21:01:43.315Z,94705.81
2017-11-12T21:04:22.102Z,94727.95
2017-11-12T21:06:50.130Z,94707.03
2017-11-12T21:09:18.574Z,94716.84
2017-11-12T21:11:46.221Z,94717.05
2017-11-12T21:14:14.176Z,94711.48
2017-11-12T21:16:41.913Z,94707.88
2017-11-12T21:19:10.594Z,94696.14
2017-11-12T21:21:38.251Z,94702.59
2017-11-12T21:24:15.837Z,94702.88
2017-11-12T21:30:17.178Z,94696.90
2017-11-12T21:32:59.818Z,94693.50
2017-11-12T21:35:40.571Z,94696.90
2017-11-12T21:38:08.352Z,94684.40
2017-11-12T21:43:16.111Z,94693.30
2017-11-12T21:45:43.770Z,94675.73
2017-11-12T21:48:11.475Z,94671.80
2017-11-12T21:50:50.273Z,94671.84
2017-11-12T21:53:18.059Z,94652.48
2017-11-12T21:55:47.769Z,94656.34
2017-11-12T21:58:19.310Z,94671.58
2017-11-12T22:00:53.048Z,94662.86
2017-11-12T22:03:20.776Z,94662.21
2017-11-12T22:05:48.614Z,94665.70
2017-11-12T22:08:16.438Z,94655.97
2017-11-12T22:10:44.121Z,94658.81
2017-11-12T22:13:11.872Z,94669.55
2017-11-12T22:15:39.626Z,94680.67
2017-11-12T22:18:07.402Z,94673.95
2017-11-12T22:20:36.817Z,94661.23
2017-11-12T22:23:05.197Z,94648.78
2017-11-12T22:25:32.777Z,94663.77
2017-11-12T22:28:00.572Z,94664.70
2017-11-12T22:30:28.214Z,94671.98
2017-11-12T22:32:58.637Z,94656.36
2017-11-12T22:35:29.557Z,94670.30
2017-11-12T22:38:01.986Z,94659.36
2017-11-12T22:40:35.887Z,94659.70
2017-11-12T22:43:05.081Z,94664.03
2017-11-12T22:45:36.283Z,94650.29
2017-11-12T22:48:06.330Z,94657.91
2017-11-12T22:50:36.364Z,94650.97
2017-11-12T22:53:08.478Z,94651.59
2017-11-12T22:55:37.808Z,94641.27
2017-11-12T22:58:07.039Z,94627.13
2017-11-12T23:00:36.565Z,94652.45
2017-11-12T23:03:10.280Z,94620.15
2017-11-12T23:05:40.853Z,94630.81
2017-11-12T23:08:09.764Z,94607.72
2017-11-12T23:10:38.913Z,94606.05
2017-11-12T23:13:08.156Z,94603.43
2017-11-12T23:15:37.324Z,94617.66
2017-11-12T23:18:05.246Z,94610.77
2017-11-12T23:20:32.915Z,94605.22
2017-11-12T23:23:00.745Z,94605.25
2017-11-12T23:25:28.505Z,94592.48
2017-11-12T23:27:56.299Z,94593.09
2017-11-12T23:30:23.904Z,94591.60
2017-11-12T23:32:51.476Z,94582.06
2017-11-12T23:35:19.077Z,94580.52
2017-11-12T23:37:46.697Z,94574.27
2017-11-12T23:40:14.735Z,94576.25
2017-11-12T23:42:42.390Z,94575.67
2017-11-12T23:45:11.093Z,94569.16
2017-11-12T23:47:38.667Z,94572.98
2017-11-12T23:50:06.972Z,94573.26
2017-11-12T23:52:34.708Z,94575.84
2017-11-12T23:55:04.308Z,94570.94
2017-11-12T23:57:32.071Z,94576.91
2017-11-12T23:59:59.787Z,94579.97
